createdAt,value
2022-11-12T00:02:38.763Z,6.82
2022-11-12T00:05:25.166Z,5.28
2022-11-12T00:08:10.871Z,4.35
2022-11-12T00:10:56.334Z,4.90
2022-11-12T00:13:41.649Z,4.45
2022-11-12T00:16:27.213Z,5.10
2022-11-12T00:19:12.590Z,3.92
2022-11-12T00:21:58.085Z,6.95
2022-11-12T00:24:47.030Z,5.05
2022-11-12T00:27:33.606Z,4.55
2022-11-12T00:30:19.198Z,5.40
2022-11-12T00:33:19.760Z,4.72
2022-11-12T00:36:05.453Z,4.80
2022-11-12T00:38:51.265Z,4.15
2022-11-12T00:41:36.786Z,4.03
2022-11-12T00:44:22.497Z,4.03
2022-11-12T00:47:07.797Z,3.67
2022-11-12T00:49:53.319Z,3.20
2022-11-12T00:52:39.253Z,3.63
2022-11-12T00:55:24.817Z,3.53
2022-11-12T00:58:10.207Z,4.95
2022-11-12T01:00:56.285Z,4.47
2022-11-12T01:03:42.427Z,3.90
2022-11-12T01:06:27.757Z,4.28
2022-11-12T01:09:13.332Z,4.05
2022-11-12T01:11:58.678Z,4.22
2022-11-12T01:14:44.062Z,5.55
2022-11-12T01:17:29.808Z,4.18
2022-11-12T01:20:15.723Z,3.25
2022-11-12T01:23:01.335Z,4.07
2022-11-12T01:25:46.628Z,3.72
2022-11-12T01:28:32.950Z,4.63
2022-11-12T01:31:37.849Z,4.45
2022-11-12T01:34:23.451Z,4.32
2022-11-12T01:37:09.124Z,4.35
2022-11-12T01:39:54.467Z,4.15
2022-11-12T01:42:40.462Z,4.72
2022-11-12T01:45:25.932Z,5.38
2022-11-12T01:48:39.006Z,4.95
2022-11-12T01:51:33.225Z,4.00
2022-11-12T01:54:21.765Z,4.53
2022-11-12T01:57:10.382Z,4.32
2022-11-12T02:00:01.986Z,4.35
2022-11-12T02:02:55.317Z,4.70
2022-11-12T02:05:42.196Z,4.15
2022-11-12T02:08:29.862Z,5.13
2022-11-12T02:11:21.136Z,4.85
2022-11-12T02:14:07.576Z,5.28
2022-11-12T02:16:53.421Z,4.35
2022-11-12T02:19:38.781Z,5.55
2022-11-12T02:22:24.610Z,3.95
2022-11-12T02:25:16.753Z,5.10
2022-11-12T02:28:06.886Z,4.13
2022-11-12T02:30:52.443Z,4.35
2022-11-12T02:33:38.219Z,4.32
2022-11-12T02:36:24.597Z,4.65
2022-11-12T02:39:10.073Z,3.78
2022-11-12T02:41:55.838Z,4.85
2022-11-12T02:44:41.491Z,4.00
2022-11-12T02:47:27.112Z,4.38
2022-11-12T02:50:12.939Z,4.28
2022-11-12T02:52:58.477Z,4.05
2022-11-12T02:55:44.310Z,4.78
2022-11-12T02:58:30.305Z,3.42
2022-11-12T03:01:16.151Z,5.55
2022-11-12T03:04:01.762Z,4.90
2022-11-12T03:06:47.369Z,5.20
2022-11-12T03:09:32.882Z,4.45
2022-11-12T03:12:18.293Z,3.75
2022-11-12T03:15:04.187Z,4.60
2022-11-12T03:17:49.826Z,5.03
2022-11-12T03:20:35.501Z,4.25
2022-11-12T03:23:20.986Z,4.97
2022-11-12T03:26:06.631Z,4.20
2022-11-12T03:28:52.416Z,5.65
2022-11-12T03:31:38.657Z,4.78
2022-11-12T03:34:24.331Z,3.60
2022-11-12T03:37:10.289Z,3.63
2022-11-12T03:39:55.970Z,4.53
2022-11-12T03:42:50.124Z,4.00
2022-11-12T03:45:35.988Z,3.45
2022-11-12T03:48:21.411Z,3.35
2022-11-12T03:51:07.005Z,3.30
2022-11-12T03:53:52.480Z,3.80
2022-11-12T03:56:37.864Z,6.70
2022-11-12T03:59:23.323Z,3.38
2022-11-12T04:02:14.279Z,4.30
2022-11-12T04:05:18.954Z,4.65
2022-11-12T04:08:26.438Z,3.08
2022-11-12T04:11:15.637Z,5.35
2022-11-12T04:14:01.248Z,3.78
2022-11-12T04:17:05.185Z,5.28
2022-11-12T04:20:09.428Z,3.90
2022-11-12T04:22:55.038Z,3.50
2022-11-12T04:25:59.801Z,3.85
2022-11-12T04:29:05.502Z,2.72
2022-11-12T04:31:50.851Z,3.15
2022-11-12T04:34:36.490Z,3.75
2022-11-12T04:37:25.257Z,4.45
2022-11-12T04:40:37.903Z,4.53
2022-11-12T04:43:41.922Z,3.03
2022-11-12T04:46:27.545Z,4.63
2022-11-12T04:49:12.859Z,3.47
2022-11-12T04:52:07.472Z,3.78
2022-11-12T04:54:53.371Z,3.67
2022-11-12T04:57:39.512Z,3.15
2022-11-12T05:00:25.791Z,3.35
2022-11-12T05:03:11.956Z,3.20
2022-11-12T05:06:30.290Z,2.67
2022-11-12T05:09:15.992Z,2.72
2022-11-12T05:12:02.102Z,3.17
2022-11-12T05:14:47.856Z,3.17
2022-11-12T05:17:33.531Z,2.67
2022-11-12T05:20:18.942Z,2.22
2022-11-12T05:23:07.117Z,2.20
2022-11-12T05:25:53.389Z,3.60
2022-11-12T05:28:39.000Z,2.05
2022-11-12T05:31:24.480Z,2.55
2022-11-12T05:34:10.201Z,2.25
2022-11-12T05:36:56.440Z,1.70
2022-11-12T05:39:41.974Z,1.70
2022-11-12T05:42:27.380Z,1.50
2022-11-12T05:45:13.152Z,1.88
2022-11-12T05:47:58.886Z,1.70
2022-11-12T05:51:11.411Z,2.47
2022-11-12T05:53:49.840Z,6.95
2022-11-12T05:56:36.793Z,7.90
2022-11-12T05:59:22.498Z,6.80
2022-11-12T06:02:07.839Z,4.45
2022-11-12T06:04:53.579Z,4.63
2022-11-12T06:07:39.521Z,4.30
2022-11-12T06:10:25.610Z,3.60
2022-11-12T06:13:10.936Z,3.55
2022-11-12T06:15:56.846Z,3.15
2022-11-12T06:18:42.527Z,1.92
2022-11-12T06:21:28.619Z,2.33
2022-11-12T06:24:14.629Z,2.25
2022-11-12T06:27:00.368Z,2.97
2022-11-12T06:29:46.121Z,2.63
2022-11-12T06:32:31.532Z,3.00
2022-11-12T06:35:18.894Z,3.78
2022-11-12T06:38:04.689Z,4.97
2022-11-12T06:40:50.104Z,5.35
2022-11-12T06:43:36.663Z,5.93
2022-11-12T06:46:22.206Z,5.35
2022-11-12T06:49:07.968Z,6.43
2022-11-12T06:51:53.612Z,4.32
2022-11-12T06:54:38.826Z,3.55
2022-11-12T06:57:24.583Z,3.05
2022-11-12T07:00:11.811Z,4.35
2022-11-12T07:02:57.488Z,3.05
2022-11-12T07:05:43.690Z,3.30
2022-11-12T07:08:29.645Z,3.67
2022-11-12T07:11:15.817Z,2.67
2022-11-12T07:14:01.184Z,2.92
2022-11-12T07:16:46.797Z,3.00
2022-11-12T07:19:32.312Z,2.67
2022-11-12T07:22:17.974Z,2.95
2022-11-12T07:25:04.410Z,2.28
2022-11-12T07:27:50.167Z,3.92
2022-11-12T07:30:35.814Z,2.25
2022-11-12T07:33:21.295Z,2.70
2022-11-12T07:36:10.627Z,2.47
2022-11-12T07:38:56.204Z,3.38
2022-11-12T07:41:41.669Z,3.10
2022-11-12T07:44:27.413Z,3.05
2022-11-12T07:47:13.170Z,4.07
2022-11-12T07:49:58.809Z,3.33
2022-11-12T07:52:44.493Z,3.42
2022-11-12T07:55:30.054Z,4.10
2022-11-12T07:58:15.491Z,3.35
2022-11-12T08:01:30.833Z,4.13
2022-11-12T08:04:16.782Z,3.85
2022-11-12T08:07:02.232Z,3.40
2022-11-12T08:09:47.819Z,4.30
2022-11-12T08:12:33.446Z,3.30
2022-11-12T08:15:19.122Z,3.97
2022-11-12T08:18:04.788Z,3.85
2022-11-12T08:20:50.272Z,3.45
2022-11-12T08:23:38.263Z,3.17
2022-11-12T08:26:23.862Z,3.80
2022-11-12T08:29:09.441Z,3.10
2022-11-12T08:31:54.875Z,2.95
2022-11-12T08:34:41.350Z,3.45
2022-11-12T08:37:27.146Z,3.40
2022-11-12T08:40:13.029Z,3.22
2022-11-12T08:43:04.773Z,3.30
2022-11-12T08:45:50.182Z,4.78
2022-11-12T08:48:36.147Z,4.57
2022-11-12T08:51:21.762Z,4.32
2022-11-12T08:54:07.686Z,3.80
2022-11-12T08:56:53.428Z,4.30
2022-11-12T08:59:39.012Z,3.92
2022-11-12T09:02:24.328Z,3.92
2022-11-12T09:05:10.049Z,4.22
2022-11-12T09:08:09.215Z,4.07
2022-11-12T09:10:54.538Z,4.25
2022-11-12T09:13:40.207Z,4.68
2022-11-12T09:16:25.642Z,5.43
2022-11-12T09:19:11.025Z,4.38
2022-11-12T09:21:56.409Z,4.88
2022-11-12T09:24:42.208Z,7.90
2022-11-12T09:27:28.883Z,5.57
2022-11-12T09:30:15.150Z,5.07
2022-11-12T09:33:00.406Z,5.82
2022-11-12T09:35:46.886Z,4.60
2022-11-12T09:38:32.825Z,5.50
2022-11-12T09:41:29.742Z,5.88
2022-11-12T09:44:20.201Z,5.00
2022-11-12T09:47:35.457Z,5.10
2022-11-12T09:50:21.306Z,4.35
2022-11-12T09:53:18.990Z,4.88
2022-11-12T09:56:10.859Z,4.82
2022-11-12T09:58:57.063Z,5.50
2022-11-12T10:02:01.753Z,4.18
2022-11-12T10:05:20.191Z,6.05
2022-11-12T10:08:35.296Z,5.00
2022-11-12T10:12:19.832Z,5.72
2022-11-12T10:15:54.941Z,5.00
2022-11-12T10:19:08.800Z,5.57
2022-11-12T10:22:44.887Z,5.10
2022-11-12T10:25:32.205Z,5.97
2022-11-12T10:28:38.535Z,4.95
2022-11-12T10:31:24.559Z,5.85
2022-11-12T10:34:25.318Z,5.20
2022-11-12T10:37:38.377Z,5.00
2022-11-12T10:40:31.640Z,5.80
2022-11-12T10:43:17.082Z,5.13
2022-11-12T10:46:22.751Z,5.32
2022-11-12T10:49:24.919Z,6.80
2022-11-12T10:52:24.879Z,5.47
2022-11-12T10:55:21.357Z,6.07
2022-11-12T10:58:09.910Z,5.40
2022-11-12T11:00:59.684Z,5.25
2022-11-12T11:03:57.500Z,7.07
2022-11-12T11:06:43.255Z,5.88
2022-11-12T11:09:29.653Z,5.75
2022-11-12T11:12:34.162Z,5.53
2022-11-12T11:15:24.982Z,6.28
2022-11-12T11:18:12.646Z,6.32
2022-11-12T11:21:13.247Z,7.28
2022-11-12T11:24:36.588Z,6.70
2022-11-12T11:27:49.290Z,5.22
2022-11-12T11:30:41.469Z,5.30
2022-11-12T11:33:57.840Z,6.00
2022-11-12T11:37:03.184Z,4.93
2022-11-12T11:40:00.098Z,4.88
2022-11-12T11:43:41.608Z,5.20
2022-11-12T11:47:33.972Z,5.90
2022-11-12T11:51:00.094Z,4.53
2022-11-12T11:54:08.782Z,5.30
2022-11-12T11:57:00.042Z,6.30
2022-11-12T12:00:20.334Z,5.63
2022-11-12T12:03:19.700Z,4.43
2022-11-12T12:06:48.298Z,5.07
2022-11-12T12:10:09.053Z,5.47
2022-11-12T12:13:14.486Z,5.65
2022-11-12T12:16:23.378Z,6.35
2022-11-12T12:19:37.524Z,5.10
2022-11-12T12:23:00.555Z,4.82
2022-11-12T12:25:49.120Z,5.47
2022-11-12T12:28:53.701Z,5.20
2022-11-12T12:31:48.283Z,5.60
2022-11-12T12:34:44.834Z,5.03
2022-11-12T12:37:59.423Z,6.18
2022-11-12T12:40:54.946Z,5.30
2022-11-12T12:43:52.670Z,6.45
2022-11-12T12:46:58.890Z,7.35
2022-11-12T12:49:47.754Z,5.90
2022-11-12T12:53:19.026Z,5.68
2022-11-12T12:56:26.953Z,5.03
2022-11-12T12:59:23.968Z,5.05
2022-11-12T13:02:22.477Z,5.22
2022-11-12T13:05:34.775Z,6.32
2022-11-12T13:08:25.176Z,5.85
2022-11-12T13:11:50.918Z,6.53
2022-11-12T13:14:38.785Z,5.15
2022-11-12T13:17:48.379Z,5.20
2022-11-12T13:20:38.304Z,5.57
2022-11-12T13:24:05.379Z,5.72
2022-11-12T13:26:55.736Z,5.68
2022-11-12T13:29:42.994Z,6.18
2022-11-12T13:32:40.782Z,5.13
2022-11-12T13:35:38.331Z,7.63
2022-11-12T13:38:24.399Z,5.57
2022-11-12T13:41:18.038Z,8.43
2022-11-12T13:44:09.194Z,5.78
2022-11-12T13:49:44.759Z,4.72
2022-11-12T13:52:30.591Z,5.85
2022-11-12T13:55:22.640Z,6.03
2022-11-12T13:58:39.793Z,5.20
2022-11-12T14:01:33.921Z,4.50
2022-11-12T14:04:24.435Z,5.10
2022-11-12T14:07:51.289Z,5.57
2022-11-12T14:11:08.276Z,5.28
2022-11-12T14:14:29.821Z,5.47
2022-11-12T14:20:36.900Z,4.45
2022-11-12T14:23:25.492Z,5.78
2022-11-12T14:26:33.268Z,6.57
2022-11-12T14:29:20.051Z,6.15
2022-11-12T14:32:09.422Z,8.18
2022-11-12T14:34:55.243Z,8.40
2022-11-12T14:37:44.038Z,7.88
2022-11-12T14:40:38.713Z,7.18
2022-11-12T14:43:37.604Z,7.13
2022-11-12T14:46:30.593Z,6.93
2022-11-12T14:49:26.626Z,6.63
2022-11-12T14:52:20.806Z,6.10
2022-11-12T14:55:28.852Z,6.32
2022-11-12T14:58:19.633Z,7.30
2022-11-12T15:02:26.572Z,6.05
2022-11-12T15:04:59.350Z,6.00
2022-11-12T15:07:58.350Z,6.20
2022-11-12T15:10:45.085Z,7.68
2022-11-12T15:13:40.054Z,6.15
2022-11-12T15:16:34.846Z,7.97
2022-11-12T15:19:26.865Z,6.38
2022-11-12T15:22:23.123Z,7.13
2022-11-12T15:25:31.792Z,5.78
2022-11-12T15:28:24.618Z,6.00
2022-11-12T15:31:21.939Z,5.35
2022-11-12T15:34:31.828Z,7.15
2022-11-12T15:37:23.382Z,5.97
2022-11-12T15:40:18.684Z,8.35
2022-11-12T15:43:12.276Z,8.55
2022-11-12T15:45:58.239Z,6.75
2022-11-12T15:48:44.062Z,7.30
2022-11-12T15:51:29.901Z,6.88
2022-11-12T15:54:15.798Z,7.03
2022-11-12T15:57:01.369Z,6.68
2022-11-12T16:00:08.510Z,6.47
2022-11-12T16:03:14.482Z,7.13
2022-11-12T16:06:05.495Z,6.85
2022-11-12T16:08:53.974Z,7.20
2022-11-12T16:11:39.701Z,6.40
2022-11-12T16:14:25.397Z,8.25
2022-11-12T16:17:15.548Z,7.10
2022-11-12T16:20:01.192Z,7.05
2022-11-12T16:22:47.148Z,7.05
2022-11-12T16:25:35.998Z,9.00
2022-11-12T16:28:21.642Z,7.88
2022-11-12T16:31:07.111Z,6.95
2022-11-12T16:33:52.963Z,7.72
2022-11-12T16:36:40.012Z,6.80
2022-11-12T16:39:25.662Z,7.47
2022-11-12T16:42:11.404Z,7.82
2022-11-12T16:44:57.018Z,6.75
2022-11-12T16:48:00.765Z,8.43
2022-11-12T16:50:46.853Z,8.45
2022-11-12T16:53:32.713Z,9.77
2022-11-12T16:56:22.630Z,7.80
2022-11-12T16:59:14.231Z,6.88
2022-11-12T17:01:59.913Z,8.27
2022-11-12T17:04:45.213Z,6.25
2022-11-12T17:07:30.779Z,6.07
2022-11-12T17:10:16.973Z,8.00
2022-11-12T17:13:02.743Z,7.35
2022-11-12T17:15:48.196Z,6.75
2022-11-12T17:18:34.900Z,8.80
2022-11-12T17:21:20.501Z,7.35
2022-11-12T17:24:08.708Z,9.10
2022-11-12T17:26:54.154Z,7.05
2022-11-12T17:29:39.717Z,6.13
2022-11-12T17:32:25.447Z,6.40
2022-11-12T17:35:10.872Z,7.18
2022-11-12T17:37:56.199Z,7.90
2022-11-12T17:40:41.845Z,8.18
2022-11-12T17:43:28.131Z,7.63
2022-11-12T17:46:15.158Z,5.72
2022-11-12T17:49:00.903Z,7.93
2022-11-12T17:51:46.433Z,7.38
2022-11-12T17:54:31.852Z,6.43
2022-11-12T17:57:18.522Z,6.32
2022-11-12T18:00:05.126Z,6.35
2022-11-12T18:02:51.894Z,7.55
2022-11-12T18:05:38.076Z,7.30
2022-11-12T18:08:23.880Z,6.95
2022-11-12T18:11:11.024Z,7.53
2022-11-12T18:13:57.413Z,7.40
2022-11-12T18:16:43.258Z,6.32
2022-11-12T18:19:28.882Z,6.53
2022-11-12T18:22:15.536Z,6.97
2022-11-12T18:25:01.288Z,7.43
2022-11-12T18:27:47.196Z,6.60
2022-11-12T18:30:34.586Z,6.38
2022-11-12T18:33:19.995Z,5.40
2022-11-12T18:36:12.709Z,6.13
2022-11-12T18:38:58.151Z,5.82
2022-11-12T18:41:43.683Z,6.00
2022-11-12T18:44:29.533Z,5.80
2022-11-12T18:47:15.465Z,6.00
2022-11-12T18:50:07.171Z,5.63
2022-11-12T18:52:54.167Z,7.00
2022-11-12T18:55:39.438Z,7.82
2022-11-12T18:58:30.522Z,7.68
2022-11-12T19:01:22.814Z,7.10
2022-11-12T19:04:11.327Z,6.18
2022-11-12T19:06:57.102Z,6.93
2022-11-12T19:09:43.201Z,7.10
2022-11-12T19:12:28.906Z,6.32
2022-11-12T19:15:14.566Z,6.40
2022-11-12T19:18:01.256Z,6.43
2022-11-12T19:20:50.160Z,5.85
2022-11-12T19:23:35.551Z,5.57
2022-11-12T19:26:22.513Z,5.13
2022-11-12T19:29:08.511Z,4.70
2022-11-12T19:31:54.001Z,5.40
2022-11-12T19:34:39.500Z,5.97
2022-11-12T19:37:33.636Z,5.43
2022-11-12T19:40:20.285Z,5.47
2022-11-12T19:43:05.727Z,5.93
2022-11-12T19:45:51.155Z,5.00
2022-11-12T19:48:36.890Z,5.15
2022-11-12T19:51:24.078Z,5.35
2022-11-12T19:54:10.049Z,5.55
2022-11-12T19:56:55.506Z,5.00
2022-11-12T19:59:41.186Z,5.53
2022-11-12T20:02:26.873Z,6.88
2022-11-12T20:05:13.133Z,6.13
2022-11-12T20:07:59.199Z,5.32
2022-11-12T20:10:44.666Z,5.85
2022-11-12T20:13:30.671Z,5.57
2022-11-12T20:16:23.959Z,5.32
2022-11-12T20:19:10.751Z,5.15
2022-11-12T20:21:56.438Z,5.28
2022-11-12T20:24:42.082Z,6.72
2022-11-12T20:27:27.688Z,5.72
2022-11-12T20:30:13.528Z,4.63
2022-11-12T20:32:59.116Z,5.28
2022-11-12T20:35:45.430Z,5.13
2022-11-12T20:38:31.159Z,4.82
2022-11-12T20:41:20.443Z,4.88
2022-11-12T20:44:06.350Z,5.40
2022-11-12T20:46:52.023Z,5.75
2022-11-12T20:49:37.613Z,6.43
2022-11-12T20:52:23.606Z,5.70
2022-11-12T20:55:09.522Z,4.25
2022-11-12T20:57:55.430Z,5.35
2022-11-12T21:00:41.112Z,5.75
2022-11-12T21:03:27.064Z,5.47
2022-11-12T21:06:27.012Z,6.60
2022-11-12T21:09:12.878Z,6.55
2022-11-12T21:11:58.849Z,5.22
2022-11-12T21:14:50.077Z,5.80
2022-11-12T21:17:36.548Z,5.63
2022-11-12T21:20:22.825Z,5.32
2022-11-12T21:23:08.412Z,5.13
2022-11-12T21:25:53.782Z,4.43
2022-11-12T21:28:48.226Z,5.55
2022-11-12T21:31:34.033Z,5.10
2022-11-12T21:34:19.417Z,4.45
2022-11-12T21:37:04.762Z,5.55
2022-11-12T21:39:50.424Z,4.57
2022-11-12T21:42:35.864Z,4.45
2022-11-12T21:45:21.587Z,4.75
2022-11-12T21:48:07.282Z,4.60
2022-11-12T21:50:52.658Z,4.13
2022-11-12T21:53:39.473Z,5.80
2022-11-12T21:56:25.351Z,7.30
2022-11-12T21:59:10.810Z,8.18
2022-11-12T22:01:56.197Z,5.75
2022-11-12T22:04:41.681Z,7.28
2022-11-12T22:07:27.610Z,8.68
2022-11-12T22:10:13.071Z,8.23
2022-11-12T22:13:25.442Z,10.77
2022-11-12T22:16:27.197Z,10.73
2022-11-12T22:19:12.941Z,10.20
2022-11-12T22:21:58.421Z,8.50
2022-11-12T22:24:44.070Z,9.55
2022-11-12T22:27:31.413Z,11.05
2022-11-12T22:30:17.257Z,15.23
2022-11-12T22:33:03.132Z,11.55
2022-11-12T22:35:48.624Z,11.15
2022-11-12T22:38:40.200Z,11.18
2022-11-12T22:41:29.242Z,10.65
2022-11-12T22:44:15.051Z,10.18
2022-11-12T22:47:00.775Z,8.93
2022-11-12T22:49:46.447Z,9.90
2022-11-12T22:52:32.156Z,9.27
2022-11-12T22:55:17.745Z,11.82
2022-11-12T22:58:03.256Z,6.25
2022-11-12T23:00:49.088Z,7.18
2022-11-12T23:03:35.789Z,7.57
2022-11-12T23:06:21.625Z,5.13
2022-11-12T23:09:07.244Z,6.20
2022-11-12T23:11:52.642Z,7.00
2022-11-12T23:14:38.169Z,5.50
2022-11-12T23:17:23.689Z,5.95
2022-11-12T23:20:10.013Z,5.20
2022-11-12T23:22:55.547Z,6.40
2022-11-12T23:25:41.349Z,5.00
2022-11-12T23:28:27.447Z,5.15
2022-11-12T23:31:23.318Z,5.22
2022-11-12T23:34:09.562Z,8.07
2022-11-12T23:36:55.189Z,5.03
2022-11-12T23:39:40.568Z,5.30
2022-11-12T23:42:25.957Z,4.72
2022-11-12T23:45:11.688Z,5.57
2022-11-12T23:47:57.786Z,5.35
2022-11-12T23:50:43.598Z,5.20
2022-11-12T23:53:30.333Z,4.95
2022-11-12T23:56:18.700Z,4.70
2022-11-12T23:59:04.381Z,6.65
